Songa Antofagasta — A8OU5 — position and weather

sailwx.info

Track history (hours):
 
Tides and Currents Weather Stations Pressure Air Temp Water Temp Dewpoint Dewpoint Depression Visibility Wind Speed Wind Dir Waves Ship Positions

Songa Antofagasta

Last reported at 2018-May-31 18:39 UTC. Time now 2018-Jun-18 00:21 UTC.
Position N 09°11' W 079°52'.
Warning: this ship's position is 17 days out of date.

Length 225 m; draft 11.3 m.

Type: Ship. MMSI: 636018035.

Date/timePositionNaut miles runAvg speedWind from/ knotsBaromVisibWave heightAir tempDewpointWater temp
2018-May-31 18:39N 09°11' W 079°52'3 7.1
2018-May-31 18:12N 09°13' W 079°55'1 6.2
2018-May-31 17:59N 09°14' W 079°56'1 3.1
2018-May-31 17:30N 09°15' W 079°55'0 0.0
2018-May-31 13:08N 09°15' W 079°55'1 2.2
2018-May-31 12:54N 09°16' W 079°55'1 1.5
2018-May-31 12:30N 09°16' W 079°55'0 0.6
2018-May-31 11:59N 09°17' W 079°55'0 0.5
2018-May-31 11:30N 09°17' W 079°55'0 0.4
2018-May-31 10:59N 09°17' W 079°55'2 5.1
2018-May-31 10:31N 09°19' W 079°55'3 5.5
2018-May-31 10:00N 09°22' W 079°56'0 0.0
2018-May-31 09:27N 09°22' W 079°56'0 0.0
2018-May-31 09:00N 09°22' W 079°56'0 0.0
2018-May-31 08:30N 09°22' W 079°56'0 0.0
2018-May-31 07:59N 09°22' W 079°56'0 0.0
2018-May-31 07:29N 09°22' W 079°56'0 0.0
2018-May-31 06:56N 09°22' W 079°56'0 0.0
2018-May-31 06:26N 09°22' W 079°56'0 0.1
2018-May-31 05:59N 09°22' W 079°56'0 0.0
2018-May-31 05:28N 09°22' W 079°55'0 0.0
2018-May-31 04:55N 09°22' W 079°55'0 0.1
2018-May-31 04:28N 09°22' W 079°55'1 1.2
2018-May-31 04:00N 09°23' W 079°55'3 6.0
2018-May-31 03:30N 09°26' W 079°55'611.3
2018-May-31 03:00N 09°31' W 079°54'4 7.6
2018-May-31 02:29N 09°35' W 079°52'24916.5
2018-May-30 11:23N 10°18' W 075°44'717.1
2018-May-30 11:00N 10°19' W 075°37'611.1
2018-May-30 10:30N 10°21' W 075°32'3 5.7
2018-May-30 09:56N 10°24' W 075°32'0 0.0
2018-May-30 09:20N 10°24' W 075°32'0 0.0
2018-May-30 08:56N 10°24' W 075°32'0 0.0
2018-May-30 08:20N 10°24' W 075°32'0 0.0
2018-May-30 07:19N 10°24' W 075°32'0 0.0
2018-May-30 06:55N 10°24' W 075°32'0 0.0
2018-May-30 06:25N 10°24' W 075°32'0 0.0
2018-May-30 05:55N 10°24' W 075°32'0 0.0
2018-May-30 05:30N 10°24' W 075°32'0 0.0
2018-May-30 05:00N 10°24' W 075°32'0 0.0
2018-May-30 04:30N 10°24' W 075°32'0 0.0
2018-May-30 03:54N 10°24' W 075°32'0 0.0
2018-May-30 03:23N 10°24' W 075°32'0 0.0
2018-May-30 02:59N 10°24' W 075°32'0 0.0
2018-May-30 02:29N 10°24' W 075°32'0 0.0
2018-May-30 01:56N 10°24' W 075°32'0 0.2
2018-May-30 01:30N 10°24' W 075°32'1 2.9
2018-May-30 01:00N 10°23' W 075°32'4 8.6
2018-May-30 00:29N 10°19' W 075°35'2 3.6
2018-May-30 00:00N 10°19' W 075°37'3 5.4
2018-May-29 23:30N 10°19' W 075°39'3 6.6
2018-May-29 22:59N 10°20' W 075°43'3 6.3
2018-May-29 22:29N 10°20' W 075°46'3 5.4
2018-May-29 22:00N 10°22' W 075°44'3 6.5
2018-May-29 21:28N 10°26' W 075°43'  
2018-May-25 02:21N 31°46' W 080°29'915.0
2018-May-25 01:45N 31°54' W 080°33'515.3
2018-May-25 01:26N 31°56' W 080°38'511.9
2018-May-25 01:00N 31°58' W 080°44'713.4
2018-May-25 00:30N 32°02' W 080°50'610.8
2018-May-25 00:00N 32°04' W 080°57'5 9.9
2018-May-24 23:31N 32°05' W 081°02'3 6.4
2018-May-24 23:01N 32°05' W 081°06'3 5.5
2018-May-24 22:29N 32°07' W 081°08'0 0.7
2018-May-24 21:56N 32°08' W 081°08'0 0.0
2018-May-24 21:26N 32°08' W 081°08'0 0.0
2018-May-24 20:56N 32°08' W 081°08'0 0.0
2018-May-24 20:26N 32°08' W 081°08'0 0.0
2018-May-24 19:49N 32°08' W 081°08'0 0.0
2018-May-24 19:25N 32°08' W 081°08'0 0.0
2018-May-24 18:55N 32°08' W 081°08'0 0.0
2018-May-24 18:19N 32°08' W 081°08'0 0.0
2018-May-24 18:00N 32°08' W 081°08'0 0.0
2018-May-24 17:30N 32°08' W 081°08'0 0.0
2018-May-24 17:00N 32°08' W 081°08'0 0.0
2018-May-24 16:30N 32°08' W 081°08'0 0.0
2018-May-24 16:00N 32°08' W 081°08'0 0.0
2018-May-24 15:29N 32°08' W 081°08'0 0.0
2018-May-24 14:59N 32°08' W 081°08'0 0.0
2018-May-24 14:29N 32°08' W 081°08'0 0.0
2018-May-24 13:59N 32°08' W 081°08'15 3.0
2018-May-24 09:00N 32°02' W 080°52'714.1
2018-May-24 08:30N 31°59' W 080°45'611.8
2018-May-24 08:00N 31°57' W 080°38'611.3
2018-May-24 07:31N 31°57' W 080°31'814.6
2018-May-24 06:59N 31°57' W 080°22'814.7
2018-May-24 06:25N 31°57' W 080°13'715.0
2018-May-24 05:59N 31°57' W 080°05'815.2
2018-May-24 05:29N 31°57' W 079°56'915.0
2018-May-24 04:52N 32°01' W 079°46'615.1
2018-May-24 04:30N 32°03' W 079°40'50814.8
2018-May-22 18:08N 39°05' W 073°52'316.0
2018-May-22 17:58N 39°08' W 073°52'816.2
2018-May-22 17:30N 39°15' W 073°52'916.1
2018-May-22 16:56N 39°25' W 073°52'716.1
2018-May-22 16:30N 39°32' W 073°52'816.3
2018-May-22 16:00N 39°40' W 073°52'816.2
2018-May-22 15:30N 39°48' W 073°51'816.4
2018-May-22 15:00N 39°56' W 073°51'815.8
2018-May-22 14:31N 40°04' W 073°50'816.1
2018-May-22 14:00N 40°12' W 073°50'815.9
2018-May-22 13:31N 40°20' W 073°49'814.9
2018-May-22 13:00N 40°27' W 073°51'611.4
2018-May-22 12:30N 40°30' W 073°57'715.0
2018-May-22 12:00N 40°36' W 074°03'4 8.3
2018-May-22 11:30N 40°39' W 074°07'2 3.9
2018-May-22 11:00N 40°40' W 074°08'0 0.5
2018-May-22 10:30N 40°41' W 074°09'0 0.0
2018-May-22 10:00N 40°41' W 074°09'0 0.0
2018-May-22 09:29N 40°41' W 074°09'0 0.0
2018-May-22 08:56N 40°41' W 074°09'0 0.0
2018-May-22 08:26N 40°41' W 074°09'0 0.0
2018-May-22 07:59N 40°41' W 074°09'0 0.0
2018-May-22 07:25N 40°41' W 074°09'0 0.0
2018-May-22 06:58N 40°41' W 074°09'0 0.0
2018-May-22 06:28N 40°41' W 074°09'0 0.0
2018-May-22 05:52N 40°41' W 074°09'0 0.0
2018-May-22 05:24N 40°41' W 074°09'0 0.0
2018-May-22 05:00N 40°41' W 074°09'0 0.0
2018-May-22 04:30N 40°41' W 074°09'0 0.0
2018-May-22 03:57N 40°41' W 074°09'0 0.0
2018-May-22 03:15N 40°41' W 074°09'0 0.0
2018-May-22 02:59N 40°41' W 074°09'0 0.0
2018-May-22 02:29N 40°41' W 074°09'0 0.0
2018-May-22 01:56N 40°41' W 074°09'0 0.0
2018-May-22 01:29N 40°41' W 074°09'0 0.0
2018-May-22 00:56N 40°41' W 074°09'0 0.0
2018-May-22 00:28N 40°41' W 074°09'0 0.0
2018-May-21 23:58N 40°41' W 074°09'0 0.0
2018-May-21 23:28N 40°41' W 074°09'0 0.0
2018-May-21 23:00N 40°41' W 074°09'0 0.6
2018-May-21 22:30N 40°40' W 074°08'2 3.7
2018-May-21 22:00N 40°39' W 074°08'4 7.9
2018-May-21 21:30N 40°40' W 074°03'2 4.3
2018-May-21 21:00N 40°41' W 074°01'0 0.0
2018-May-21 20:30N 40°41' W 074°01'0 0.0
2018-May-21 20:00N 40°41' W 074°01'0 0.0
2018-May-21 19:30N 40°41' W 074°01'0 0.0
2018-May-21 19:00N 40°41' W 074°01'  
Track history (hours):
 
Tides and Currents Weather Stations Pressure Air Temp Water Temp Dewpoint Dewpoint Depression Visibility Wind Speed Wind Dir Waves Ship Positions

Songa Antofagasta

Last reported at 2018-May-31 18:39 UTC. Time now 2018-Jun-18 00:21 UTC.
Position N 09°11' W 079°52'.
Warning: this ship's position is 17 days out of date.

Length 225 m; draft 11.3 m.

Type: Ship. MMSI: 636018035.

Date/timePositionNaut miles runAvg speedWind from/ knotsBaromVisibWave heightAir tempDewpointWater temp
2018-May-31 18:39N 09°11' W 079°52'3 7.1
2018-May-31 18:12N 09°13' W 079°55'1 6.2
2018-May-31 17:59N 09°14' W 079°56'1 3.1
2018-May-31 17:30N 09°15' W 079°55'0 0.0
2018-May-31 13:08N 09°15' W 079°55'1 2.2
2018-May-31 12:54N 09°16' W 079°55'1 1.5
2018-May-31 12:30N 09°16' W 079°55'0 0.6
2018-May-31 11:59N 09°17' W 079°55'0 0.5
2018-May-31 11:30N 09°17' W 079°55'0 0.4
2018-May-31 10:59N 09°17' W 079°55'2 5.1
2018-May-31 10:31N 09°19' W 079°55'3 5.5
2018-May-31 10:00N 09°22' W 079°56'0 0.0
2018-May-31 09:27N 09°22' W 079°56'0 0.0
2018-May-31 09:00N 09°22' W 079°56'0 0.0
2018-May-31 08:30N 09°22' W 079°56'0 0.0
2018-May-31 07:59N 09°22' W 079°56'0 0.0
2018-May-31 07:29N 09°22' W 079°56'0 0.0
2018-May-31 06:56N 09°22' W 079°56'0 0.0
2018-May-31 06:26N 09°22' W 079°56'0 0.1
2018-May-31 05:59N 09°22' W 079°56'0 0.0
2018-May-31 05:28N 09°22' W 079°55'0 0.0
2018-May-31 04:55N 09°22' W 079°55'0 0.1
2018-May-31 04:28N 09°22' W 079°55'1 1.2
2018-May-31 04:00N 09°23' W 079°55'3 6.0
2018-May-31 03:30N 09°26' W 079°55'611.3
2018-May-31 03:00N 09°31' W 079°54'4 7.6
2018-May-31 02:29N 09°35' W 079°52'24916.5
2018-May-30 11:23N 10°18' W 075°44'717.1
2018-May-30 11:00N 10°19' W 075°37'611.1
2018-May-30 10:30N 10°21' W 075°32'3 5.7
2018-May-30 09:56N 10°24' W 075°32'0 0.0
2018-May-30 09:20N 10°24' W 075°32'0 0.0
2018-May-30 08:56N 10°24' W 075°32'0 0.0
2018-May-30 08:20N 10°24' W 075°32'0 0.0
2018-May-30 07:19N 10°24' W 075°32'0 0.0
2018-May-30 06:55N 10°24' W 075°32'0 0.0
2018-May-30 06:25N 10°24' W 075°32'0 0.0
2018-May-30 05:55N 10°24' W 075°32'0 0.0
2018-May-30 05:30N 10°24' W 075°32'0 0.0
2018-May-30 05:00N 10°24' W 075°32'0 0.0
2018-May-30 04:30N 10°24' W 075°32'0 0.0
2018-May-30 03:54N 10°24' W 075°32'0 0.0
2018-May-30 03:23N 10°24' W 075°32'0 0.0
2018-May-30 02:59N 10°24' W 075°32'0 0.0
2018-May-30 02:29N 10°24' W 075°32'0 0.0
2018-May-30 01:56N 10°24' W 075°32'0 0.2
2018-May-30 01:30N 10°24' W 075°32'1 2.9
2018-May-30 01:00N 10°23' W 075°32'4 8.6
2018-May-30 00:29N 10°19' W 075°35'2 3.6
2018-May-30 00:00N 10°19' W 075°37'3 5.4
2018-May-29 23:30N 10°19' W 075°39'3 6.6
2018-May-29 22:59N 10°20' W 075°43'3 6.3
2018-May-29 22:29N 10°20' W 075°46'3 5.4
2018-May-29 22:00N 10°22' W 075°44'3 6.5
2018-May-29 21:28N 10°26' W 075°43'  
2018-May-25 02:21N 31°46' W 080°29'915.0
2018-May-25 01:45N 31°54' W 080°33'515.3
2018-May-25 01:26N 31°56' W 080°38'511.9
2018-May-25 01:00N 31°58' W 080°44'713.4
2018-May-25 00:30N 32°02' W 080°50'610.8
2018-May-25 00:00N 32°04' W 080°57'5 9.9
2018-May-24 23:31N 32°05' W 081°02'3 6.4
2018-May-24 23:01N 32°05' W 081°06'3 5.5
2018-May-24 22:29N 32°07' W 081°08'0 0.7
2018-May-24 21:56N 32°08' W 081°08'0 0.0
2018-May-24 21:26N 32°08' W 081°08'0 0.0
2018-May-24 20:56N 32°08' W 081°08'0 0.0
2018-May-24 20:26N 32°08' W 081°08'0 0.0
2018-May-24 19:49N 32°08' W 081°08'0 0.0
2018-May-24 19:25N 32°08' W 081°08'0 0.0
2018-May-24 18:55N 32°08' W 081°08'0 0.0
2018-May-24 18:19N 32°08' W 081°08'0 0.0
2018-May-24 18:00N 32°08' W 081°08'0 0.0
2018-May-24 17:30N 32°08' W 081°08'0 0.0
2018-May-24 17:00N 32°08' W 081°08'0 0.0
2018-May-24 16:30N 32°08' W 081°08'0 0.0
2018-May-24 16:00N 32°08' W 081°08'0 0.0
2018-May-24 15:29N 32°08' W 081°08'0 0.0
2018-May-24 14:59N 32°08' W 081°08'0 0.0
2018-May-24 14:29N 32°08' W 081°08'0 0.0
2018-May-24 13:59N 32°08' W 081°08'15 3.0
2018-May-24 09:00N 32°02' W 080°52'714.1
2018-May-24 08:30N 31°59' W 080°45'611.8
2018-May-24 08:00N 31°57' W 080°38'611.3
2018-May-24 07:31N 31°57' W 080°31'814.6
2018-May-24 06:59N 31°57' W 080°22'814.7
2018-May-24 06:25N 31°57' W 080°13'715.0
2018-May-24 05:59N 31°57' W 080°05'815.2
2018-May-24 05:29N 31°57' W 079°56'915.0
2018-May-24 04:52N 32°01' W 079°46'615.1
2018-May-24 04:30N 32°03' W 079°40'50814.8
2018-May-22 18:08N 39°05' W 073°52'316.0
2018-May-22 17:58N 39°08' W 073°52'816.2
2018-May-22 17:30N 39°15' W 073°52'916.1
2018-May-22 16:56N 39°25' W 073°52'716.1
2018-May-22 16:30N 39°32' W 073°52'816.3
2018-May-22 16:00N 39°40' W 073°52'816.2
2018-May-22 15:30N 39°48' W 073°51'816.4
2018-May-22 15:00N 39°56' W 073°51'815.8
2018-May-22 14:31N 40°04' W 073°50'816.1
2018-May-22 14:00N 40°12' W 073°50'815.9
2018-May-22 13:31N 40°20' W 073°49'814.9
2018-May-22 13:00N 40°27' W 073°51'611.4
2018-May-22 12:30N 40°30' W 073°57'715.0
2018-May-22 12:00N 40°36' W 074°03'4 8.3
2018-May-22 11:30N 40°39' W 074°07'2 3.9
2018-May-22 11:00N 40°40' W 074°08'0 0.5
2018-May-22 10:30N 40°41' W 074°09'0 0.0
2018-May-22 10:00N 40°41' W 074°09'0 0.0
2018-May-22 09:29N 40°41' W 074°09'0 0.0
2018-May-22 08:56N 40°41' W 074°09'0 0.0
2018-May-22 08:26N 40°41' W 074°09'0 0.0
2018-May-22 07:59N 40°41' W 074°09'0 0.0
2018-May-22 07:25N 40°41' W 074°09'0 0.0
2018-May-22 06:58N 40°41' W 074°09'0 0.0
2018-May-22 06:28N 40°41' W 074°09'0 0.0
2018-May-22 05:52N 40°41' W 074°09'0 0.0
2018-May-22 05:24N 40°41' W 074°09'0 0.0
2018-May-22 05:00N 40°41' W 074°09'0 0.0
2018-May-22 04:30N 40°41' W 074°09'0 0.0
2018-May-22 03:57N 40°41' W 074°09'0 0.0
2018-May-22 03:15N 40°41' W 074°09'0 0.0
2018-May-22 02:59N 40°41' W 074°09'0 0.0
2018-May-22 02:29N 40°41' W 074°09'0 0.0
2018-May-22 01:56N 40°41' W 074°09'0 0.0
2018-May-22 01:29N 40°41' W 074°09'0 0.0
2018-May-22 00:56N 40°41' W 074°09'0 0.0
2018-May-22 00:28N 40°41' W 074°09'0 0.0
2018-May-21 23:58N 40°41' W 074°09'0 0.0
2018-May-21 23:28N 40°41' W 074°09'0 0.0
2018-May-21 23:00N 40°41' W 074°09'0 0.6
2018-May-21 22:30N 40°40' W 074°08'2 3.7
2018-May-21 22:00N 40°39' W 074°08'4 7.9
2018-May-21 21:30N 40°40' W 074°03'2 4.3
2018-May-21 21:00N 40°41' W 074°01'0 0.0
2018-May-21 20:30N 40°41' W 074°01'0 0.0
2018-May-21 20:00N 40°41' W 074°01'0 0.0
2018-May-21 19:30N 40°41' W 074°01'0 0.0
2018-May-21 19:00N 40°41' W 074°01'  

Dump ship's entire track history